Time;durP1;ratioP1;P1;durP2;ratioP2;P2;SDS_P1;SDS_P2;PMS_P1;PMS_P2;Temp;Humidity;BMP_temperature;BMP_pressure;BME280_temperature;BME280_humidity;BME280_pressure;Samples;Min_cycle;Max_cycle;Signal;HPM_P1;HPM_P2
2023/04/23 00:00:49;;;;;;;;;;;6.80;99.90;;;;;;5114441;28;20363;-74
2023/04/23 00:03:18;;;;;;;;;;;6.80;99.90;;;;;;5113450;28;20015;-74
2023/04/23 00:05:44;;;;;;;;;;;6.90;99.90;;;;;;5114179;28;19930;-74
2023/04/23 00:08:10;;;;;;;;;;;7.00;99.90;;;;;;5114051;28;20004;-75
2023/04/23 00:10:36;;;;;;;;;;;6.90;99.90;;;;;;5113688;28;19923;-74
2023/04/23 00:13:01;;;;;;;;;;;6.90;99.90;;;;;;5095951;28;20340;-74
2023/04/23 00:15:27;;;;;;;;;;;6.90;99.90;;;;;;5114449;28;19927;-74
2023/04/23 00:17:53;;;;;;;;;;;6.90;99.90;;;;;;5113205;28;19932;-74
2023/04/23 00:20:18;;;;;;;;;;;7.00;99.90;;;;;;5095993;28;19981;-74
2023/04/23 00:22:44;;;;;;;;;;;7.00;99.90;;;;;;5094800;28;20424;-74
2023/04/23 00:25:10;;;;;;;;;;;7.90;99.90;;;;;;5113698;28;19931;-74
2023/04/23 00:27:35;;;;;;;;;;;7.30;99.90;;;;;;5096084;28;20348;-73
2023/04/23 00:30:02;;;;;;;;;;;7.30;99.90;;;;;;5094743;28;19931;-74
2023/04/23 00:32:27;;;;;;;;;;;7.40;99.90;;;;;;5095714;28;19924;-75
2023/04/23 00:34:54;;;;;;;;;;;7.10;99.90;;;;;;5095652;28;19926;-74
2023/04/23 00:37:19;;;;;;;;;;;7.50;99.90;;;;;;5094806;28;19924;-74
2023/04/23 00:39:45;;;;;;;;;;;7.00;99.90;;;;;;5113575;28;19927;-74
2023/04/23 00:42:11;;;;;;;;;;;7.00;99.90;;;;;;5113539;28;20367;-74
2023/04/23 00:44:40;;;;;;;;;;;6.90;99.90;;;;;;5094762;28;20371;-74
2023/04/23 00:47:06;;;;;;;;;;;7.00;99.90;;;;;;5095674;28;20291;-74
2023/04/23 00:49:32;;;;;;;;;;;6.80;99.90;;;;;;5113363;28;19935;-74
2023/04/23 00:51:59;;;;;;;;;;;7.20;99.90;;;;;;5094577;28;20010;-75
2023/04/23 00:54:25;;;;;;;;;;;7.30;99.90;;;;;;5095311;28;19951;-74
2023/04/23 00:56:51;;;;;;;;;;;7.20;99.90;;;;;;5113242;28;20662;-73
2023/04/23 00:59:16;;;;;;;;;;;6.90;99.90;;;;;;5094232;28;19923;-75
2023/04/23 01:01:44;;;;;;;;;;;6.80;99.90;;;;;;5095181;28;20022;-74
2023/04/23 01:04:11;;;;;;;;;;;6.80;99.90;;;;;;5094745;28;19924;-74
2023/04/23 01:06:36;;;;;;;;;;;6.80;99.90;;;;;;5094673;28;19923;-74
2023/04/23 01:09:02;;;;;;;;;;;6.80;99.90;;;;;;5095133;28;20347;-74
2023/04/23 01:11:28;;;;;;;;;;;6.70;99.90;;;;;;5095472;28;19956;-74
2023/04/23 01:13:55;;;;;;;;;;;6.70;99.90;;;;;;5094233;28;20379;-74
2023/04/23 01:16:20;;;;;;;;;;;6.80;99.90;;;;;;5095374;28;20010;-74
2023/04/23 01:18:46;;;;;;;;;;;6.70;99.90;;;;;;5094830;28;20073;-74
2023/04/23 01:21:18;;;;;;;;;;;7.00;99.90;;;;;;5094424;28;19927;-74
2023/04/23 01:23:44;;;;;;;;;;;6.70;99.90;;;;;;5094977;28;20382;-74
2023/04/23 01:26:09;;;;;;;;;;;6.70;99.90;;;;;;5094144;28;19927;-74
2023/04/23 01:28:35;;;;;;;;;;;6.70;99.90;;;;;;5094495;28;19924;-74
2023/04/23 01:31:03;;;;;;;;;;;6.80;99.90;;;;;;5094891;28;19927;-74
2023/04/23 01:33:30;;;;;;;;;;;6.70;99.90;;;;;;5094231;28;19931;-74
2023/04/23 01:35:56;;;;;;;;;;;6.70;99.90;;;;;;5112867;28;19930;-74
2023/04/23 01:38:22;;;;;;;;;;;6.70;99.90;;;;;;5095054;28;20018;-74
2023/04/23 01:40:47;;;;;;;;;;;6.90;99.90;;;;;;5094173;28;19924;-73
2023/04/23 01:43:13;;;;;;;;;;;6.60;99.90;;;;;;5094696;28;19928;-73
2023/04/23 01:45:40;;;;;;;;;;;6.60;99.90;;;;;;5095192;28;19924;-75
2023/04/23 01:48:05;;;;;;;;;;;6.60;99.90;;;;;;5111754;28;20367;-75
2023/04/23 01:50:31;;;;;;;;;;;6.50;99.90;;;;;;5113133;28;19977;-75
2023/04/23 01:52:56;;;;;;;;;;;6.50;99.90;;;;;;5094696;28;19969;-75
2023/04/23 01:55:22;;;;;;;;;;;6.70;99.90;;;;;;5093897;28;19924;-75
2023/04/23 01:57:48;;;;;;;;;;;6.30;99.90;;;;;;5094275;28;19963;-75
2023/04/23 02:00:14;;;;;;;;;;;6.30;99.90;;;;;;5112620;28;19923;-75
2023/04/23 02:02:40;;;;;;;;;;;6.20;99.90;;;;;;5093885;28;19923;-75
2023/04/23 02:05:17;;;;;;;;;;;6.20;99.90;;;;;;5112835;28;19947;-75
2023/04/23 02:07:43;;;;;;;;;;;6.20;99.90;;;;;;5094646;28;20332;-75
2023/04/23 02:10:09;;;;;;;;;;;6.20;99.90;;;;;;5094065;28;19924;-75
2023/04/23 02:12:35;;;;;;;;;;;6.30;99.90;;;;;;5114779;28;19931;-75
2023/04/23 02:15:01;;;;;;;;;;;6.40;99.90;;;;;;5097918;28;19924;-75
2023/04/23 02:17:28;;;;;;;;;;;6.90;99.90;;;;;;5116071;28;19931;-75
2023/04/23 02:19:54;;;;;;;;;;;6.40;99.90;;;;;;5098126;28;19971;-75
2023/04/23 02:22:21;;;;;;;;;;;6.40;99.90;;;;;;5097371;28;19927;-75
2023/04/23 02:24:47;;;;;;;;;;;6.50;99.90;;;;;;5116454;28;19950;-75
2023/04/23 02:27:12;;;;;;;;;;;6.40;99.90;;;;;;5097586;28;20425;-75
2023/04/23 02:29:38;;;;;;;;;;;7.30;99.90;;;;;;5097590;28;19923;-75
2023/04/23 02:32:04;;;;;;;;;;;6.30;99.90;;;;;;5097949;28;19924;-75
2023/04/23 02:34:29;;;;;;;;;;;6.20;99.90;;;;;;5097918;28;19977;-75
2023/04/23 02:36:55;;;;;;;;;;;6.50;99.90;;;;;;5096665;28;20011;-75
2023/04/23 02:39:20;;;;;;;;;;;6.10;99.90;;;;;;5116322;28;20014;-75
2023/04/23 02:41:49;;;;;;;;;;;6.20;99.90;;;;;;5098043;28;20366;-75
2023/04/23 02:44:15;;;;;;;;;;;6.30;99.90;;;;;;5096639;28;20018;-75
2023/04/23 02:46:40;;;;;;;;;;;6.30;99.90;;;;;;5097551;28;20018;-75
2023/04/23 02:49:06;;;;;;;;;;;6.70;99.90;;;;;;5097004;28;19924;-75
2023/04/23 02:51:34;;;;;;;;;;;6.70;99.90;;;;;;5115243;28;19931;-75
2023/04/23 02:53:59;;;;;;;;;;;6.50;99.90;;;;;;5097571;28;19924;-74
2023/04/23 02:56:25;;;;;;;;;;;6.50;99.90;;;;;;5097455;28;20424;-75
2023/04/23 02:58:50;;;;;;;;;;;6.80;99.90;;;;;;5096372;28;20430;-75
2023/04/23 03:01:16;;;;;;;;;;;6.90;99.90;;;;;;5097149;28;19931;-75
2023/04/23 03:03:41;;;;;;;;;;;6.50;99.90;;;;;;5115574;28;20298;-75
2023/04/23 03:06:07;;;;;;;;;;;6.40;99.90;;;;;;5096265;28;19923;-75
2023/04/23 03:08:33;;;;;;;;;;;6.60;99.90;;;;;;5097327;28;19942;-75
2023/04/23 03:10:58;;;;;;;;;;;7.10;99.90;;;;;;5115141;28;19977;-75
2023/04/23 03:13:24;;;;;;;;;;;6.70;99.90;;;;;;5114670;28;19931;-75
2023/04/23 03:15:50;;;;;;;;;;;6.80;99.90;;;;;;5097213;28;19920;-75
2023/04/23 03:18:16;;;;;;;;;;;6.60;99.90;;;;;;5115180;28;19924;-75
2023/04/23 03:20:41;;;;;;;;;;;6.70;99.90;;;;;;5096089;28;19945;-75
2023/04/23 03:23:10;;;;;;;;;;;6.70;99.90;;;;;;5114926;28;19924;-75
2023/04/23 03:25:35;;;;;;;;;;;6.70;99.90;;;;;;5114709;28;19928;-75
2023/04/23 03:28:01;;;;;;;;;;;6.70;99.90;;;;;;5115059;28;20431;-75
2023/04/23 03:30:27;;;;;;;;;;;7.20;99.90;;;;;;5114935;28;20375;-75
2023/04/23 03:32:55;;;;;;;;;;;6.70;99.90;;;;;;5095785;28;19985;-75
2023/04/23 03:35:20;;;;;;;;;;;6.70;99.90;;;;;;5096821;28;19919;-75
2023/04/23 03:37:46;;;;;;;;;;;6.70;99.90;;;;;;5114895;28;20005;-75
2023/04/23 03:40:11;;;;;;;;;;;6.70;99.90;;;;;;5095628;28;19976;-75
2023/04/23 03:42:37;;;;;;;;;;;6.80;99.90;;;;;;5096523;28;19924;-75
2023/04/23 03:45:03;;;;;;;;;;;6.80;99.90;;;;;;5096731;28;19927;-75
2023/04/23 03:47:29;;;;;;;;;;;6.80;99.90;;;;;;5113638;28;19920;-75
2023/04/23 03:49:55;;;;;;;;;;;6.90;99.90;;;;;;5114782;28;19930;-76
2023/04/23 03:52:20;;;;;;;;;;;6.90;99.90;;;;;;5114737;28;20018;-76
2023/04/23 03:54:46;;;;;;;;;;;7.00;99.90;;;;;;5095054;28;20002;-75
2023/04/23 03:57:11;;;;;;;;;;;6.90;99.90;;;;;;5095811;28;19964;-75
2023/04/23 03:59:37;;;;;;;;;;;7.20;99.90;;;;;;5096386;28;19924;-75
2023/04/23 04:02:03;;;;;;;;;;;7.00;99.90;;;;;;5113071;28;20310;-75
2023/04/23 04:04:29;;;;;;;;;;;7.10;99.90;;;;;;5095949;28;19924;-75
2023/04/23 04:06:55;;;;;;;;;;;7.20;99.90;;;;;;5095816;28;19946;-75
2023/04/23 04:09:21;;;;;;;;;;;7.20;99.90;;;;;;5095057;28;19920;-75
2023/04/23 04:11:46;;;;;;;;;;;7.30;99.90;;;;;;5114268;28;19923;-76
2023/04/23 04:14:12;;;;;;;;;;;7.20;99.90;;;;;;5095941;28;19924;-75
2023/04/23 04:16:38;;;;;;;;;;;7.30;99.90;;;;;;5112588;28;19930;-76
2023/04/23 04:19:10;;;;;;;;;;;7.30;99.90;;;;;;5113967;28;19924;-75
2023/04/23 04:21:36;;;;;;;;;;;7.30;99.90;;;;;;5114066;28;19920;-76
2023/04/23 04:24:04;;;;;;;;;;;7.90;99.90;;;;;;5112344;28;20025;-72
2023/04/23 04:26:33;;;;;;;;;;;7.40;99.90;;;;;;5095652;28;20024;-74
2023/04/23 04:29:00;;;;;;;;;;;7.50;99.90;;;;;;5094394;28;19977;-73
2023/04/23 04:31:26;;;;;;;;;;;7.30;99.90;;;;;;5095738;28;19928;-73
2023/04/23 04:33:52;;;;;;;;;;;7.30;99.90;;;;;;5113743;28;19928;-73
2023/04/23 04:36:18;;;;;;;;;;;7.40;99.90;;;;;;5094648;28;19946;-73
2023/04/23 04:38:44;;;;;;;;;;;7.30;99.90;;;;;;5113802;28;19924;-73
2023/04/23 04:41:10;;;;;;;;;;;7.40;99.90;;;;;;5113150;28;20324;-73
2023/04/23 04:43:39;;;;;;;;;;;7.40;99.90;;;;;;5094489;28;19924;-73
2023/04/23 04:46:04;;;;;;;;;;;7.40;99.90;;;;;;5095074;28;19971;-73
2023/04/23 04:48:30;;;;;;;;;;;7.90;99.90;;;;;;5113679;28;19930;-73
2023/04/23 04:50:56;;;;;;;;;;;7.60;99.90;;;;;;5093543;28;19924;-73
2023/04/23 04:53:22;;;;;;;;;;;8.60;99.90;;;;;;5094484;28;19924;-73
2023/04/23 04:55:47;;;;;;;;;;;7.90;99.90;;;;;;5112944;28;19931;-74
2023/04/23 04:58:13;;;;;;;;;;;7.80;99.90;;;;;;5111544;28;19923;-73
2023/04/23 05:00:39;;;;;;;;;;;7.70;99.90;;;;;;5094929;28;20060;-72
2023/04/23 05:03:05;;;;;;;;;;;7.70;99.90;;;;;;5094578;28;20409;-72
2023/04/23 05:05:31;;;;;;;;;;;7.70;99.90;;;;;;5094219;28;20433;-73
2023/04/23 05:08:01;;;;;;;;;;;7.70;99.90;;;;;;5112523;28;20303;-73
2023/04/23 05:10:27;;;;;;;;;;;7.70;99.90;;;;;;5111351;28;19930;-72
2023/04/23 05:12:52;;;;;;;;;;;8.10;99.90;;;;;;5091530;28;19973;-73
2023/04/23 05:15:18;;;;;;;;;;;7.80;99.90;;;;;;5111478;28;19924;-73
2023/04/23 05:17:44;;;;;;;;;;;7.90;99.90;;;;;;5111557;28;19924;-72
2023/04/23 05:20:09;;;;;;;;;;;7.90;99.90;;;;;;5093338;28;19928;-73
2023/04/23 05:22:36;;;;;;;;;;;7.90;99.90;;;;;;5112943;28;20374;-73
2023/04/23 05:25:02;;;;;;;;;;;8.00;99.90;;;;;;5094691;28;19931;-73
2023/04/23 05:27:28;;;;;;;;;;;8.10;99.90;;;;;;5111410;28;19930;-74
2023/04/23 05:29:53;;;;;;;;;;;8.20;99.90;;;;;;5112450;28;19927;-74
2023/04/23 05:32:22;;;;;;;;;;;8.20;99.90;;;;;;5109190;28;19928;-74
2023/04/23 05:34:47;;;;;;;;;;;8.30;99.90;;;;;;5094219;28;19969;-74
2023/04/23 05:37:13;;;;;;;;;;;8.30;99.90;;;;;;5094293;28;20010;-72
2023/04/23 05:39:38;;;;;;;;;;;8.50;99.90;;;;;;5094157;28;20438;-72
2023/04/23 05:42:04;;;;;;;;;;;8.70;99.90;;;;;;5110558;28;19932;-74
2023/04/23 05:44:29;;;;;;;;;;;8.60;99.90;;;;;;5111935;28;20066;-73
2023/04/23 05:46:55;;;;;;;;;;;8.60;99.90;;;;;;5094857;28;20394;-73
2023/04/23 05:49:21;;;;;;;;;;;8.50;99.90;;;;;;5098558;28;19923;-73
2023/04/23 05:51:46;;;;;;;;;;;9.20;99.90;;;;;;5116829;28;19927;-73
2023/04/23 05:54:12;;;;;;;;;;;8.70;99.90;;;;;;5097074;28;19942;-74
2023/04/23 05:56:37;;;;;;;;;;;8.60;99.90;;;;;;5098293;28;19928;-73
2023/04/23 05:59:03;;;;;;;;;;;9.10;99.90;;;;;;5115962;28;19938;-73
2023/04/23 06:01:29;;;;;;;;;;;8.80;99.90;;;;;;5115763;28;19931;-73
2023/04/23 06:03:54;;;;;;;;;;;9.00;99.90;;;;;;5097758;28;19924;-73
2023/04/23 06:06:20;;;;;;;;;;;9.30;99.90;;;;;;5116856;28;20394;-73
2023/04/23 06:08:45;;;;;;;;;;;9.20;99.90;;;;;;5097427;28;19978;-72
2023/04/23 06:11:11;;;;;;;;;;;9.30;99.90;;;;;;5115668;28;20271;-73
2023/04/23 06:13:39;;;;;;;;;;;9.60;99.90;;;;;;5098186;28;19928;-73
2023/04/23 06:16:08;;;;;;;;;;;9.50;99.90;;;;;;5111889;28;20007;-73
2023/04/23 06:18:33;;;;;;;;;;;9.70;99.90;;;;;;5096832;28;19924;-72
2023/04/23 06:21:03;;;;;;;;;;;10.50;99.90;;;;;;5096660;28;19977;-73
2023/04/23 06:23:29;;;;;;;;;;;9.70;99.90;;;;;;5096654;28;19923;-72
2023/04/23 06:25:54;;;;;;;;;;;10.10;99.90;;;;;;5115176;28;19946;-72
2023/04/23 06:28:20;;;;;;;;;;;9.70;99.90;;;;;;5116037;28;20375;-71
2023/04/23 06:30:46;;;;;;;;;;;9.60;99.90;;;;;;5115050;28;20392;-72
2023/04/23 06:33:12;;;;;;;;;;;9.70;99.90;;;;;;5115646;28;19979;-72
2023/04/23 06:35:37;;;;;;;;;;;9.90;99.90;;;;;;5096255;28;19931;-71
2023/04/23 06:38:03;;;;;;;;;;;9.80;99.90;;;;;;5097126;28;19928;-73
2023/04/23 06:40:28;;;;;;;;;;;9.70;99.90;;;;;;5097492;28;19947;-72
2023/04/23 06:42:54;;;;;;;;;;;9.70;99.90;;;;;;5096149;28;20291;-71
2023/04/23 06:45:20;;;;;;;;;;;9.90;99.90;;;;;;5097330;28;19927;-73
2023/04/23 06:47:45;;;;;;;;;;;9.80;99.90;;;;;;5097477;28;20290;-72
2023/04/23 06:50:11;;;;;;;;;;;9.80;99.90;;;;;;5114317;28;20408;-74
2023/04/23 06:52:37;;;;;;;;;;;9.70;99.90;;;;;;5114939;28;20418;-73
2023/04/23 06:55:02;;;;;;;;;;;9.80;99.90;;;;;;5095641;28;19953;-73
2023/04/23 06:57:28;;;;;;;;;;;9.90;99.90;;;;;;5113877;28;19982;-74
2023/04/23 06:59:53;;;;;;;;;;;9.90;99.90;;;;;;5114655;28;19970;-72
2023/04/23 07:02:19;;;;;;;;;;;10.00;99.90;;;;;;5096324;28;19969;-74
2023/04/23 07:04:45;;;;;;;;;;;10.20;99.90;;;;;;5096096;28;19927;-74
2023/04/23 07:07:11;;;;;;;;;;;10.30;99.90;;;;;;5096736;28;19989;-75
2023/04/23 07:09:36;;;;;;;;;;;10.40;99.90;;;;;;5093688;28;19924;-79
2023/04/23 07:12:02;;;;;;;;;;;10.40;99.90;;;;;;5095262;28;19963;-75
2023/04/23 07:14:28;;;;;;;;;;;10.50;99.90;;;;;;5096985;28;19971;-79
2023/04/23 07:16:53;;;;;;;;;;;10.70;99.90;;;;;;5096788;28;19924;-77
2023/04/23 07:19:19;;;;;;;;;;;10.90;99.90;;;;;;5114766;28;19969;-80
2023/04/23 07:21:45;;;;;;;;;;;11.00;99.90;;;;;;5115256;28;20291;-77
2023/04/23 07:24:10;;;;;;;;;;;11.50;99.90;;;;;;5096106;28;20010;-72
2023/04/23 07:26:36;;;;;;;;;;;12.00;99.90;;;;;;5096754;28;19993;-74
2023/04/23 07:29:02;;;;;;;;;;;12.30;99.90;;;;;;5096389;28;19920;-73
2023/04/23 07:31:28;;;;;;;;;;;12.30;99.90;;;;;;5114912;28;20355;-74
2023/04/23 07:33:55;;;;;;;;;;;12.30;99.90;;;;;;5114152;28;19924;-75
2023/04/23 07:36:23;;;;;;;;;;;12.40;99.90;;;;;;5114468;28;20011;-77
2023/04/23 07:38:49;;;;;;;;;;;12.80;99.90;;;;;;5092170;28;19931;-76
2023/04/23 07:41:15;;;;;;;;;;;13.40;99.90;;;;;;5113864;28;20028;-75
2023/04/23 07:43:41;;;;;;;;;;;13.70;99.90;;;;;;5095842;28;19985;-75
2023/04/23 07:46:06;;;;;;;;;;;14.10;99.90;;;;;;5095158;28;19923;-75
2023/04/23 07:48:33;;;;;;;;;;;14.30;99.90;;;;;;5095995;28;20364;-74
2023/04/23 07:50:59;;;;;;;;;;;14.50;99.90;;;;;;5094405;28;20020;-75
2023/04/23 07:53:27;;;;;;;;;;;15.20;99.90;;;;;;5093975;28;19927;-75
2023/04/23 07:55:54;;;;;;;;;;;15.00;99.90;;;;;;5093613;28;19923;-74
2023/04/23 07:58:20;;;;;;;;;;;15.20;99.90;;;;;;5111729;28;20588;-73
2023/04/23 08:00:45;;;;;;;;;;;15.30;99.90;;;;;;5093084;28;20043;-74
2023/04/23 08:03:11;;;;;;;;;;;15.60;99.90;;;;;;5111649;28;20379;-71
2023/04/23 08:05:37;;;;;;;;;;;16.10;99.90;;;;;;5094076;28;20026;-71
2023/04/23 08:08:05;;;;;;;;;;;16.10;99.90;;;;;;5109642;28;20136;-72
2023/04/23 08:10:30;;;;;;;;;;;16.30;99.90;;;;;;5112914;28;19975;-72
2023/04/23 08:12:59;;;;;;;;;;;16.60;99.90;;;;;;5095382;28;20006;-71
2023/04/23 08:15:25;;;;;;;;;;;16.60;99.90;;;;;;5112840;28;19974;-72
2023/04/23 08:17:50;;;;;;;;;;;16.90;99.90;;;;;;5095523;28;19959;-73
2023/04/23 08:20:16;;;;;;;;;;;17.40;99.90;;;;;;5113493;28;19927;-74
2023/04/23 08:22:42;;;;;;;;;;;17.60;99.90;;;;;;5112035;28;19930;-74
2023/04/23 08:25:08;;;;;;;;;;;17.90;99.90;;;;;;5094654;28;19927;-74
2023/04/23 08:27:33;;;;;;;;;;;18.30;99.90;;;;;;5095357;28;19966;-75
2023/04/23 08:29:59;;;;;;;;;;;18.70;99.90;;;;;;5094019;28;19970;-74
2023/04/23 08:32:25;;;;;;;;;;;19.00;99.90;;;;;;5091495;28;20462;-74
2023/04/23 08:34:50;;;;;;;;;;;19.30;99.90;;;;;;5112749;28;19943;-74
2023/04/23 08:37:16;;;;;;;;;;;19.30;99.90;;;;;;5112456;28;19927;-74
2023/04/23 08:39:41;;;;;;;;;;;19.50;99.90;;;;;;5094718;28;20022;-75
2023/04/23 08:42:14;;;;;;;;;;;19.60;99.90;;;;;;5109345;28;19934;-74
2023/04/23 08:44:41;;;;;;;;;;;19.30;99.90;;;;;;5108945;28;19924;-71
2023/04/23 08:47:09;;;;;;;;;;;19.10;99.90;;;;;;5093920;28;19924;-73
2023/04/23 08:49:36;;;;;;;;;;;18.90;99.90;;;;;;5111781;28;19968;-72
2023/04/23 08:52:14;;;;;;;;;;;19.00;99.90;;;;;;5119855;27;19923;-72
2023/04/23 08:54:41;;;;;;;;;;;19.00;99.90;;;;;;5110349;28;19928;-72
2023/04/23 08:57:08;;;;;;;;;;;19.20;99.90;;;;;;5092954;28;20386;-73
2023/04/23 08:59:34;;;;;;;;;;;19.70;99.90;;;;;;5111926;28;20379;-73
2023/04/23 09:02:06;;;;;;;;;;;19.60;99.90;;;;;;5092857;28;19924;-73
2023/04/23 09:04:32;;;;;;;;;;;19.70;99.90;;;;;;5093136;28;19931;-73
2023/04/23 09:06:57;;;;;;;;;;;19.50;99.90;;;;;;5111637;28;19924;-73
2023/04/23 09:09:23;;;;;;;;;;;18.90;99.90;;;;;;5112230;28;19927;-72
2023/04/23 09:11:49;;;;;;;;;;;18.60;99.90;;;;;;5090722;28;20387;-72
2023/04/23 09:14:15;;;;;;;;;;;18.10;99.90;;;;;;5093051;28;19977;-72
2023/04/23 09:16:41;;;;;;;;;;;17.70;99.90;;;;;;5093801;28;20290;-72
2023/04/23 09:19:08;;;;;;;;;;;17.60;99.90;;;;;;5092372;28;20355;-72
2023/04/23 09:21:35;;;;;;;;;;;17.40;99.90;;;;;;5095783;28;19924;-74
2023/04/23 09:24:03;;;;;;;;;;;17.30;99.90;;;;;;5095334;28;19923;-75
2023/04/23 09:26:29;;;;;;;;;;;18.00;99.90;;;;;;5097126;28;19924;-75
2023/04/23 09:29:00;;;;;;;;;;;18.70;99.90;;;;;;5097088;28;19972;-74
2023/04/23 09:31:26;;;;;;;;;;;18.80;99.90;;;;;;5097640;28;19931;-75
2023/04/23 09:33:52;;;;;;;;;;;18.50;99.90;;;;;;5098146;28;19924;-74
2023/04/23 09:36:22;;;;;;;;;;;18.20;99.90;;;;;;5095009;28;19924;-74
2023/04/23 09:38:49;;;;;;;;;;;18.00;99.90;;;;;;5115555;28;20439;-74
2023/04/23 09:41:21;;;;;;;;;;;17.80;99.90;;;;;;5097147;28;19955;-75
2023/04/23 09:43:46;;;;;;;;;;;17.70;99.90;;;;;;5093352;28;19932;-74
2023/04/23 09:46:12;;;;;;;;;;;17.10;99.90;;;;;;5096548;28;20033;-73
2023/04/23 09:48:43;;;;;;;;;;;17.00;99.90;;;;;;5096395;28;20287;-74
2023/04/23 09:51:12;;;;;;;;;;;17.70;99.90;;;;;;5115902;28;19931;-73
2023/04/23 09:53:42;;;;;;;;;;;18.50;99.90;;;;;;5093902;28;19934;-75
2023/04/23 09:56:07;;;;;;;;;;;19.20;99.90;;;;;;5097131;28;19927;-75
2023/04/23 09:58:33;;;;;;;;;;;19.90;99.90;;;;;;5097781;28;19932;-74
2023/04/23 10:01:06;;;;;;;;;;;20.80;99.90;;;;;;5097147;28;20411;-77
2023/04/23 10:03:32;;;;;;;;;;;21.50;99.90;;;;;;5097578;28;19977;-77
2023/04/23 10:05:57;;;;;;;;;;;21.70;99.90;;;;;;5110321;28;20356;-75
2023/04/23 10:08:24;;;;;;;;;;;21.20;99.90;;;;;;5091277;28;20442;-76
2023/04/23 10:10:49;;;;;;;;;;;20.60;99.90;;;;;;5111006;28;19967;-76
2023/04/23 10:13:16;;;;;;;;;;;20.00;99.90;;;;;;5096539;28;19962;-76
2023/04/23 10:15:45;;;;;;;;;;;19.80;99.90;;;;;;5096719;28;20006;-75
2023/04/23 10:18:11;;;;;;;;;;;19.70;99.90;;;;;;5113920;28;20052;-74
2023/04/23 10:20:37;;;;;;;;;;;19.70;99.90;;;;;;5091989;28;20052;-77
2023/04/23 10:23:04;;;;;;;;;;;19.40;99.90;;;;;;5095626;28;19958;-75
2023/04/23 10:25:30;;;;;;;;;;;19.30;99.90;;;;;;5096018;28;20371;-75
2023/04/23 10:27:57;;;;;;;;;;;19.20;99.90;;;;;;5094836;28;19938;-76
2023/04/23 10:30:22;;;;;;;;;;;19.40;99.90;;;;;;5096027;28;20438;-73
2023/04/23 10:32:48;;;;;;;;;;;19.40;99.90;;;;;;5113086;28;20010;-75
2023/04/23 10:35:17;;;;;;;;;;;19.80;99.90;;;;;;5093733;28;20359;-74
2023/04/23 10:37:43;;;;;;;;;;;20.50;99.90;;;;;;5096031;28;19975;-75
2023/04/23 10:40:13;;;;;;;;;;;21.10;99.90;;;;;;5113478;28;19928;-76
2023/04/23 10:42:39;;;;;;;;;;;21.10;99.90;;;;;;5095853;28;20018;-80
2023/04/23 10:45:15;;;;;;;;;;;21.50;99.90;;;;;;5095154;28;20121;-79
2023/04/23 10:47:41;;;;;;;;;;;21.40;99.30;;;;;;5094394;28;19930;-73
2023/04/23 10:50:25;;;;;;;;;;;21.50;99.20;;;;;;5095280;28;19931;-75
2023/04/23 10:52:52;;;;;;;;;;;21.50;99.20;;;;;;5114438;28;19963;-77
2023/04/23 10:55:22;;;;;;;;;;;21.00;98.00;;;;;;5097233;28;19931;-73
2023/04/23 10:58:07;;;;;;;;;;;20.80;99.10;;;;;;5097805;28;19931;-79
2023/04/23 11:00:45;;;;;;;;;;;20.70;98.50;;;;;;5098651;28;20387;-78
2023/04/23 11:03:46;;;;;;;;;;;20.10;99.30;;;;;;5116179;28;19928;-84
2023/04/23 11:06:14;;;;;;;;;;;19.80;99.80;;;;;;5013091;28;19932;-82
2023/04/23 11:08:50;;;;;;;;;;;19.40;99.90;;;;;;5074534;28;19923;-78
2023/04/23 11:11:16;;;;;;;;;;;19.40;99.90;;;;;;5096296;28;20421;-75
2023/04/23 11:13:50;;;;;;;;;;;19.60;99.90;;;;;;5112358;27;19931;-78
2023/04/23 11:16:17;;;;;;;;;;;19.80;99.90;;;;;;5094023;28;19977;-78
2023/04/23 11:18:55;;;;;;;;;;;19.80;99.90;;;;;;5114750;27;19923;-75
2023/04/23 11:21:43;;;;;;;;;;;19.80;99.90;;;;;;5090649;28;19928;-75
2023/04/23 11:24:09;;;;;;;;;;;19.40;99.90;;;;;;5111276;28;20375;-73
2023/04/23 11:26:35;;;;;;;;;;;18.90;99.90;;;;;;5113694;28;19930;-74
2023/04/23 11:29:01;;;;;;;;;;;19.10;99.90;;;;;;5090685;28;20360;-74
2023/04/23 11:31:27;;;;;;;;;;;18.90;99.90;;;;;;5114980;27;19928;-76
2023/04/23 11:33:53;;;;;;;;;;;19.20;99.60;;;;;;5109369;27;20030;-75
2023/04/23 11:36:18;;;;;;;;;;;19.70;99.90;;;;;;5093944;28;19924;-76
2023/04/23 11:38:45;;;;;;;;;;;19.70;99.40;;;;;;5093195;28;19920;-73
2023/04/23 11:41:13;;;;;;;;;;;20.10;99.00;;;;;;5093598;28;19927;-73
2023/04/23 11:43:38;;;;;;;;;;;20.10;98.40;;;;;;5112170;28;19980;-73
2023/04/23 11:46:05;;;;;;;;;;;20.50;98.60;;;;;;5106056;28;19946;-72
2023/04/23 11:48:30;;;;;;;;;;;20.70;99.70;;;;;;5112145;28;19933;-77
2023/04/23 11:50:56;;;;;;;;;;;20.80;98.20;;;;;;5090058;28;19923;-79
2023/04/23 11:53:24;;;;;;;;;;;21.10;97.50;;;;;;5109960;28;19931;-76
2023/04/23 11:55:52;;;;;;;;;;;20.70;97.10;;;;;;5114166;27;20288;-76
2023/04/23 11:58:18;;;;;;;;;;;20.70;97.50;;;;;;5093594;28;19928;-78
2023/04/23 12:00:43;;;;;;;;;;;21.00;97.90;;;;;;5093712;28;19973;-78
2023/04/23 12:03:09;;;;;;;;;;;20.70;98.30;;;;;;5093559;28;19935;-78
2023/04/23 12:05:38;;;;;;;;;;;20.60;97.20;;;;;;5112382;28;19928;-77
2023/04/23 12:08:10;;;;;;;;;;;20.50;97.70;;;;;;5112799;27;19927;-76
2023/04/23 12:10:49;;;;;;;;;;;19.90;97.00;;;;;;5093713;28;19924;-76
2023/04/23 12:13:15;;;;;;;;;;;19.70;99.10;;;;;;5110857;28;19977;-76
2023/04/23 12:15:45;;;;;;;;;;;19.50;98.80;;;;;;5112290;28;19924;-76
2023/04/23 12:18:11;;;;;;;;;;;19.10;98.60;;;;;;5093677;28;19928;-76
2023/04/23 12:20:36;;;;;;;;;;;19.30;99.90;;;;;;5112531;28;20412;-75
2023/04/23 12:23:08;;;;;;;;;;;19.50;99.70;;;;;;5108572;27;19962;-77
2023/04/23 12:25:34;;;;;;;;;;;19.40;99.50;;;;;;5108054;27;19935;-74
2023/04/23 12:28:00;;;;;;;;;;;19.40;99.30;;;;;;5091716;28;20354;-74
2023/04/23 12:30:29;;;;;;;;;;;19.50;99.90;;;;;;5112914;28;19971;-78
2023/04/23 12:33:05;;;;;;;;;;;19.80;98.30;;;;;;5109315;27;19928;-75
2023/04/23 12:35:41;;;;;;;;;;;20.00;99.00;;;;;;5115273;27;19930;-75
2023/04/23 12:38:07;;;;;;;;;;;20.00;97.80;;;;;;5112192;28;20412;-78
2023/04/23 12:40:33;;;;;;;;;;;19.90;98.40;;;;;;5115884;27;19971;-76
2023/04/23 12:42:58;;;;;;;;;;;20.20;95.70;;;;;;5092032;28;19923;-77
2023/04/23 12:45:24;;;;;;;;;;;20.00;95.30;;;;;;5106961;28;19946;-74
2023/04/23 12:47:50;;;;;;;;;;;20.00;96.70;;;;;;5111063;28;19992;-74
2023/04/23 12:50:15;;;;;;;;;;;19.50;97.00;;;;;;5110963;28;19923;-74
2023/04/23 12:52:41;;;;;;;;;;;20.00;96.70;;;;;;5111409;27;19928;-74
2023/04/23 12:55:07;;;;;;;;;;;19.70;97.30;;;;;;5089077;28;19924;-74
2023/04/23 12:57:33;;;;;;;;;;;19.50;98.20;;;;;;5110346;28;19927;-74
2023/04/23 13:00:01;;;;;;;;;;;19.40;98.00;;;;;;5110760;28;19938;-75
2023/04/23 13:02:26;;;;;;;;;;;19.80;96.60;;;;;;5111156;28;19924;-76
2023/04/23 13:04:58;;;;;;;;;;;19.40;97.90;;;;;;5093833;28;19949;-78
2023/04/23 13:07:23;;;;;;;;;;;19.30;98.10;;;;;;5111737;28;19934;-73
2023/04/23 13:09:49;;;;;;;;;;;19.40;98.30;;;;;;5108676;28;19924;-75
2023/04/23 13:12:15;;;;;;;;;;;19.20;99.30;;;;;;5092498;28;19927;-74
2023/04/23 13:14:40;;;;;;;;;;;19.30;99.00;;;;;;5093281;28;19930;-78
2023/04/23 13:17:06;;;;;;;;;;;19.30;98.40;;;;;;5110608;28;19934;-77
2023/04/23 13:19:32;;;;;;;;;;;19.50;98.30;;;;;;5092967;28;19977;-76
2023/04/23 13:21:58;;;;;;;;;;;19.20;98.40;;;;;;5111511;28;20398;-75
2023/04/23 13:24:24;;;;;;;;;;;19.10;99.50;;;;;;5092312;28;19923;-77
2023/04/23 13:26:49;;;;;;;;;;;19.20;98.00;;;;;;5112467;28;19924;-74
2023/04/23 13:29:15;;;;;;;;;;;19.10;98.60;;;;;;5092149;28;19924;-74
2023/04/23 13:31:41;;;;;;;;;;;19.10;98.30;;;;;;5110285;28;19927;-73
2023/04/23 13:34:06;;;;;;;;;;;19.10;98.90;;;;;;5092430;28;19959;-74
2023/04/23 13:36:32;;;;;;;;;;;18.90;99.60;;;;;;5092706;28;19930;-76
2023/04/23 13:38:57;;;;;;;;;;;19.00;98.80;;;;;;5110480;28;19920;-77
2023/04/23 13:41:23;;;;;;;;;;;19.00;99.90;;;;;;5112148;28;19932;-74
2023/04/23 13:43:48;;;;;;;;;;;18.80;98.90;;;;;;5111253;28;19924;-74
2023/04/23 13:46:14;;;;;;;;;;;19.20;98.40;;;;;;5092067;28;19924;-77
2023/04/23 13:48:40;;;;;;;;;;;19.10;99.00;;;;;;5113365;27;20567;-78
2023/04/23 13:51:05;;;;;;;;;;;19.10;97.90;;;;;;5089329;28;20395;-76
2023/04/23 13:53:31;;;;;;;;;;;19.20;97.30;;;;;;5108323;28;19935;-75
2023/04/23 13:55:58;;;;;;;;;;;19.20;97.90;;;;;;5111218;28;19924;-73
2023/04/23 13:58:23;;;;;;;;;;;19.20;98.10;;;;;;5110946;28;19960;-74
2023/04/23 14:00:49;;;;;;;;;;;19.10;98.50;;;;;;5111358;28;20015;-75
2023/04/23 14:03:15;;;;;;;;;;;19.20;98.00;;;;;;5093333;28;19930;-74
2023/04/23 14:05:40;;;;;;;;;;;19.40;98.70;;;;;;5092770;28;20355;-73
2023/04/23 14:08:06;;;;;;;;;;;19.50;97.80;;;;;;5094549;28;20506;-72
2023/04/23 14:10:31;;;;;;;;;;;19.40;98.40;;;;;;5114580;28;19980;-73
2023/04/23 14:12:57;;;;;;;;;;;19.60;97.70;;;;;;5094889;28;19923;-78
2023/04/23 14:15:23;;;;;;;;;;;19.50;98.10;;;;;;5111027;27;20031;-73
2023/04/23 14:17:48;;;;;;;;;;;19.50;96.30;;;;;;5116765;27;19932;-73
2023/04/23 14:20:14;;;;;;;;;;;19.60;97.90;;;;;;5095150;28;20026;-79